Mossel Bay, South Africa

10:25 PM SAST on September 17, 2014 (GMT +0200)
George | Change Station
CLOSE
Current Station
Airport
Location: George,
Elevation: 633 ft
Nearby Weather Stations

Elev 633 ft 34.01 °S, 22.38 °E | Updated 25 minutes ago

Overcast
Overcast
59 °F
Feels Like 59 °F
N
0
Wind Variable Wind from North

Today
High -- | Low -- °F
--% Chance of Precip.
Yesterday
High -- | Low -- °F
Precip. -- in
6:28 AM 6:24 PM
Waning Crescent, 33% visible
Pressure 29.77 in
Visibility 6.2 miles
Clouds Overcast 1600 ft
Dew Point 57 °F
Humidity 94%
Rainfall 0.00 in
Snow Depth Not available.
UV 0 out of 12
Pollen Not available.
Air Quality Not available.
Flu Activity Not available.
METAR FAGG 172000Z AUTO 00000KT 9999 OVC016/// 15/14 Q1008

More Conditions Fewer Conditions

Pressure 29.77 in
Visibility 6.2 miles
Clouds Overcast 1600 ft
Dew Point 57 °F
Humidity 94%
Rainfall 0.00 in
Snow Depth Not available.
UV 0 out of 12
Pollen Not available.
Air Quality Not available.
Flu Activity Not available.
METAR FAGG 172000Z AUTO 00000KT 9999 OVC016/// 15/14 Q1008

More Conditions Fewer Conditions

10-Day Weather Forecast

Almanac

Astronomy

Sep. 17, 2014 Rise Set
Actual Time 6:28 AM SAST 6:24 PM SAST
Civil Twilight 6:03 AM SAST 6:49 PM SAST
Nautical Twilight 5:34 AM SAST 7:18 PM SAST
Astronomical Twilight 5:05 AM SAST 7:47 PM SAST
Moon 1:59 AM SAST 12:35 PM SAST
Length of Visible Light 12h 45m
Length of Day
11h 55m
Tomorrow will be 2m 6s longer.
Waning Crescent, 33% of the Moon is Illuminated
Today
Waning Crescent
Sep 24
New
Oct 1
First Quarter
Oct 8
Full
Oct 15
Last Quarter

Today's Extremes

Country Highs Country Lows

Community

WunderPhotos

Upload Photos

1,754,157 photos uploaded!

Nearby

Snow Depth

Not available.

Earthquake Activity

City Distance Mag. Time & Date
No recent earthquake activity has been reported nearby.
Minimum magnitude displayed is 2.5.

Coastal Water Temperatures

Place Temperature
No Stations Reporting

Nearby Weather Stations